Terminal Aerodrome Forecast
Issued by NWS

Home | Current Version | Previous Version | Text Only | Print | Product List | Glossary On
Versions: 1 2 3 4 5 6 7 8 9 10 11 12 13 14 15
000
FTUS42 TJSJ 231721
TAFJSJ
TAF
TJSJ 231721Z 2318/2418 06014G20KT P6SM VCSH FEW030 SCT120
     FM232300 09008KT P6SM VCSH SCT030
     FM241100 08013KT P6SM FEW030 SCT040=

USA.gov is the U.S. government's official web portal to all federal, state and local government web resources and services.